Time;durP1;ratioP1;P1;durP2;ratioP2;P2;SDS_P1;SDS_P2;PMS_P1;PMS_P2;Temp;Humidity;BMP_temperature;BMP_pressure;BME280_temperature;BME280_humidity;BME280_pressure;Samples;Min_cycle;Max_cycle;Signal;HPM_P1;HPM_P2
2023/07/18 00:02:27;;;;;;;5.90;3.10;;;;;;;19.87;75.03;99471.75;5082570;28;20065;-81
2023/07/18 00:05:12;;;;;;;6.07;3.30;;;;;;;19.94;75.03;99464.41;5079940;28;20062;-81
2023/07/18 00:07:56;;;;;;;4.93;3.20;;;;;;;19.78;75.08;99456.19;5078113;28;20097;-81
2023/07/18 00:10:40;;;;;;;6.00;3.10;;;;;;;19.71;75.41;99450.25;5083002;28;20571;-81
2023/07/18 00:13:24;;;;;;;11.60;3.40;;;;;;;19.85;75.59;99445.38;5079862;28;20043;-82
2023/07/18 00:16:09;;;;;;;4.32;3.60;;;;;;;19.76;75.48;99452.97;5087426;28;20074;-81
2023/07/18 00:18:55;;;;;;;5.75;3.20;;;;;;;19.88;75.73;99452.06;5083239;28;20038;-82
2023/07/18 00:21:39;;;;;;;6.55;3.05;;;;;;;19.76;75.99;99447.63;5081267;28;20543;-84
2023/07/18 00:24:23;;;;;;;8.07;3.00;;;;;;;19.61;76.21;99448.22;5081657;28;20565;-82
2023/07/18 00:27:07;;;;;;;5.57;2.75;;;;;;;19.53;77.03;99443.31;5082032;28;20036;-82
2023/07/18 00:29:51;;;;;;;5.72;3.28;;;;;;;19.49;77.57;99448.34;5080757;28;20043;-83
2023/07/18 00:32:36;;;;;;;3.95;2.90;;;;;;;19.64;77.09;99452.25;5082787;28;20047;-83
2023/07/18 00:35:21;;;;;;;5.45;3.88;;;;;;;19.46;77.84;99438.16;5079020;28;20546;-84
2023/07/18 00:38:05;;;;;;;4.88;3.15;;;;;;;19.47;78.30;99438.97;5080875;28;20098;-82
2023/07/18 00:40:49;;;;;;;3.65;3.10;;;;;;;19.49;78.64;99443.00;5080444;28;20119;-82
2023/07/18 00:43:34;;;;;;;5.13;3.50;;;;;;;19.50;78.47;99436.63;5080171;28;20047;-82
2023/07/18 00:46:18;;;;;;;7.45;3.38;;;;;;;19.53;78.65;99437.97;5084271;28;20078;-82
2023/07/18 00:49:03;;;;;;;7.03;3.67;;;;;;;19.44;79.35;99444.78;5083899;28;20554;-82
2023/07/18 00:51:47;;;;;;;5.65;3.05;;;;;;;19.45;79.52;99441.84;5082451;28;20047;-82
2023/07/18 00:54:33;;;;;;;5.35;2.90;;;;;;;19.54;79.52;99444.91;5082100;28;20110;-82
2023/07/18 00:57:17;;;;;;;6.20;3.05;;;;;;;19.65;79.67;99438.69;5081595;28;20575;-82
2023/07/18 01:00:08;;;;;;;5.07;3.55;;;;;;;19.76;79.39;99438.84;5082895;28;20050;-83
2023/07/18 01:02:53;;;;;;;7.63;3.65;;;;;;;19.75;79.52;99434.56;5080716;28;20116;-81
2023/07/18 01:05:37;;;;;;;6.70;3.60;;;;;;;19.75;79.81;99435.38;5080182;28;20043;-83
2023/07/18 01:08:21;;;;;;;11.52;3.67;;;;;;;19.74;79.68;99428.44;5078786;28;20082;-83
2023/07/18 01:11:07;;;;;;;6.70;3.80;;;;;;;19.91;79.69;99431.06;5076676;28;20054;-83
2023/07/18 01:13:51;;;;;;;7.57;3.85;;;;;;;20.00;79.21;99431.47;5081130;28;20034;-84
2023/07/18 01:16:35;;;;;;;5.70;3.63;;;;;;;20.34;78.62;99427.84;5081108;28;20448;-81
2023/07/18 01:19:20;;;;;;;7.45;3.78;;;;;;;19.92;79.31;99421.25;5078664;28;20101;-80
2023/07/18 01:22:04;;;;;;;7.22;3.70;;;;;;;19.63;79.97;99429.34;5079913;28;20476;-81
2023/07/18 01:24:48;;;;;;;5.88;3.60;;;;;;;19.54;80.87;99429.75;5078425;28;20042;-81
2023/07/18 01:27:36;;;;;;;4.78;3.28;;;;;;;19.55;81.14;99430.56;5078263;28;20040;-80
2023/07/18 01:30:24;;;;;;;6.82;3.72;;;;;;;19.54;80.78;99434.25;5083791;28;20050;-81
2023/07/18 01:33:08;;;;;;;6.25;3.40;;;;;;;19.47;81.52;99434.47;5078885;28;20043;-81
2023/07/18 01:35:52;;;;;;;4.20;2.80;;;;;;;19.48;81.53;99429.94;5079271;28;20109;-83
2023/07/18 01:38:37;;;;;;;6.18;3.38;;;;;;;19.74;80.95;99425.78;5078193;28;20090;-82
2023/07/18 01:41:20;;;;;;;7.65;3.60;;;;;;;20.03;80.09;99420.28;5081677;28;20063;-81
2023/07/18 01:44:05;;;;;;;4.70;3.30;;;;;;;20.24;79.26;99425.88;5081072;28;20520;-81
2023/07/18 01:46:48;;;;;;;6.15;3.30;;;;;;;20.15;79.28;99417.53;5079479;28;20038;-81
2023/07/18 01:49:35;;;;;;;6.00;3.25;;;;;;;20.44;78.63;99419.97;5078195;28;20055;-81
2023/07/18 01:52:19;;;;;;;6.10;3.47;;;;;;;20.13;78.80;99408.97;5077711;28;20120;-84
2023/07/18 01:55:05;;;;;;;4.30;3.30;;;;;;;20.10;79.00;99410.28;5081554;28;20134;-83
2023/07/18 01:57:49;;;;;;;4.60;3.70;;;;;;;20.00;79.16;99412.81;5081649;28;20066;-83
2023/07/18 02:00:35;;;;;;;7.88;3.60;;;;;;;20.06;78.36;99406.50;5081999;28;20059;-84
2023/07/18 02:03:18;;;;;;;6.35;3.40;;;;;;;20.06;78.16;99406.50;5078273;28;20409;-84
2023/07/18 02:06:05;;;;;;;6.68;3.35;;;;;;;20.02;77.87;99396.59;5080428;28;20071;-82
2023/07/18 02:08:49;;;;;;;5.75;3.22;;;;;;;19.86;78.31;99388.38;5080152;28;20039;-83
2023/07/18 02:11:33;;;;;;;5.85;3.88;;;;;;;20.04;77.63;99387.28;5078266;28;20110;-83
2023/07/18 02:14:19;;;;;;;6.28;3.80;;;;;;;20.12;77.86;99400.16;5080150;28;20040;-83
2023/07/18 02:17:04;;;;;;;9.25;3.95;;;;;;;20.14;77.69;99394.56;5076593;28;20094;-81
2023/07/18 02:19:48;;;;;;;7.88;3.83;;;;;;;20.14;77.79;99389.25;5081144;28;20035;-84
2023/07/18 02:22:40;;;;;;;4.85;3.40;;;;;;;20.16;77.85;99391.69;5075898;28;20070;-81
2023/07/18 02:25:24;;;;;;;6.85;3.70;;;;;;;20.15;78.05;99395.41;5077528;28;20429;-84
2023/07/18 02:28:08;;;;;;;5.95;3.45;;;;;;;20.15;77.67;99395.41;5078480;28;20043;-84
2023/07/18 02:30:52;;;;;;;4.63;3.17;;;;;;;20.12;77.96;99396.69;5078281;28;20394;-83
2023/07/18 02:33:36;;;;;;;5.97;3.63;;;;;;;20.03;78.25;99393.66;5080341;28;20051;-83
2023/07/18 02:36:21;;;;;;;5.35;3.42;;;;;;;20.00;78.42;99393.38;5076718;28;20081;-82
2023/07/18 02:39:08;;;;;;;10.25;4.65;;;;;;;19.95;78.60;99386.09;5081950;28;20432;-82
2023/07/18 02:41:51;;;;;;;7.63;3.50;;;;;;;20.04;77.75;99384.59;5080903;28;20452;-83
2023/07/18 02:44:36;;;;;;;6.53;3.90;;;;;;;19.77;78.55;99389.88;5083666;28;20070;-83
2023/07/18 02:47:20;;;;;;;7.55;3.95;;;;;;;19.92;nan;99379.41;5077779;28;20050;-82
2023/07/18 02:50:05;;;;;;;6.15;4.10;;;;;;;19.82;78.46;99382.72;5082806;28;20105;-83
2023/07/18 02:52:49;;;;;;;8.90;4.15;;;;;;;19.84;78.55;99380.59;5083746;28;20044;-83
2023/07/18 02:55:33;;;;;;;10.85;3.70;;;;;;;19.97;78.14;99384.00;5080293;28;20520;-80
2023/07/18 02:58:17;;;;;;;7.80;3.67;;;;;;;19.84;78.26;99366.50;5084602;28;20549;-81
2023/07/18 03:01:01;;;;;;;;;;;;;;;19.48;79.35;99374.84;5085402;28;20540;-81
2023/07/18 03:03:45;;;;;;;8.68;3.97;;;;;;;19.36;79.80;99368.81;5079932;28;20396;-83
2023/07/18 03:06:29;;;;;;;9.57;4.47;;;;;;;19.29;80.10;99360.19;5082687;28;20185;-80
2023/07/18 03:09:17;;;;;;;8.70;4.28;;;;;;;19.42;80.08;99367.81;5084344;28;20085;-83
2023/07/18 03:12:01;;;;;;;12.82;4.28;;;;;;;19.44;79.91;99365.72;5081507;28;20505;-80
2023/07/18 03:14:45;;;;;;;9.63;3.83;;;;;;;19.35;80.36;99364.53;5083029;28;20043;-80
2023/07/18 03:17:30;;;;;;;6.85;4.10;;;;;;;19.44;80.16;99363.03;5078733;28;20040;-82
2023/07/18 03:20:17;;;;;;;6.55;3.72;;;;;;;19.37;79.84;99373.06;5081157;28;20047;-80
2023/07/18 03:23:04;;;;;;;4.53;3.60;;;;;;;19.33;80.43;99361.31;5084256;28;20066;-81
2023/07/18 03:25:48;;;;;;;7.57;3.88;;;;;;;19.46;80.35;99365.47;5083805;28;20051;-81
2023/07/18 03:28:32;;;;;;;9.32;4.22;;;;;;;19.49;80.30;99367.66;5081498;28;20413;-81
2023/07/18 03:31:16;;;;;;;7.22;3.97;;;;;;;19.63;80.37;99365.44;5081853;28;20197;-81
2023/07/18 03:34:00;;;;;;;6.20;4.20;;;;;;;19.73;80.38;99356.75;5082237;28;20111;-81
2023/07/18 03:36:45;;;;;;;7.28;3.72;;;;;;;19.69;80.56;99367.13;5081663;28;20168;-80
2023/07/18 03:39:28;;;;;;;9.23;4.10;;;;;;;19.57;80.97;99363.75;5086027;28;20501;-82
2023/07/18 03:42:12;;;;;;;10.02;4.47;;;;;;;19.60;80.78;99349.94;5083402;28;20090;-82
2023/07/18 03:44:56;;;;;;;7.63;4.20;;;;;;;19.43;81.13;99353.44;5082896;28;20050;-82
2023/07/18 03:47:42;;;;;;;7.63;4.15;;;;;;;19.33;81.64;99363.97;5084164;28;20529;-81
2023/07/18 03:50:26;;;;;;;7.20;4.07;;;;;;;19.15;82.28;99357.03;5078218;28;20040;-81
2023/07/18 03:53:10;;;;;;;7.95;3.97;;;;;;;19.18;82.41;99352.03;5082421;28;20071;-81
2023/07/18 03:56:01;;;;;;;6.20;3.67;;;;;;;19.20;82.37;99354.47;5077954;28;20460;-80
2023/07/18 03:58:45;;;;;;;7.13;4.32;;;;;;;19.69;81.42;99356.47;5081667;28;20539;-82
2023/07/18 04:01:29;;;;;;;7.78;3.60;;;;;;;19.87;80.71;99352.69;5078837;28;20030;-82
2023/07/18 04:04:13;;;;;;;6.15;4.38;;;;;;;20.46;78.98;99353.06;5080773;28;20512;-81
2023/07/18 04:06:57;;;;;;;5.53;3.95;;;;;;;20.69;78.34;99358.09;5080412;28;20513;-82
2023/07/18 04:09:41;;;;;;;5.47;3.60;;;;;;;21.00;77.28;99351.41;5082739;28;20039;-82
2023/07/18 04:12:25;;;;;;;7.32;4.13;;;;;;;20.90;77.61;99344.94;5083852;28;20070;-81
2023/07/18 04:15:10;;;;;;;6.75;3.90;;;;;;;21.00;77.29;99346.06;5082432;28;20086;-83
2023/07/18 04:17:54;;;;;;;4.93;3.47;;;;;;;21.15;76.68;99342.72;5080355;28;20570;-81
2023/07/18 04:20:38;;;;;;;8.95;4.05;;;;;;;21.04;76.96;99347.19;5081825;28;20501;-83
2023/07/18 04:23:22;;;;;;;9.25;4.80;;;;;;;21.12;76.69;99352.03;5081372;28;20101;-84
2023/07/18 04:26:09;;;;;;;9.38;3.95;;;;;;;20.96;77.44;99351.13;5085289;28;20094;-82
2023/07/18 04:28:53;;;;;;;7.30;3.75;;;;;;;21.14;76.93;99349.91;5080903;28;20075;-83
2023/07/18 04:31:37;;;;;;;6.03;4.13;;;;;;;20.81;77.89;99344.59;5080675;28;20114;-82
2023/07/18 04:34:21;;;;;;;7.70;4.03;;;;;;;20.91;77.87;99349.22;5079346;28;20039;-82
2023/07/18 04:37:05;;;;;;;5.95;4.07;;;;;;;20.77;78.22;99343.47;5079853;28;20068;-82
2023/07/18 04:39:49;;;;;;;5.95;4.10;;;;;;;20.83;78.30;99341.66;5086348;28;20551;-81
2023/07/18 04:42:33;;;;;;;7.38;3.83;;;;;;;20.93;78.18;99341.75;5083330;28;20564;-82
2023/07/18 04:45:17;;;;;;;5.65;3.67;;;;;;;21.15;77.97;99337.38;5085550;28;20047;-81
2023/07/18 04:48:03;;;;;;;6.82;4.20;;;;;;;21.02;78.10;99349.28;5080515;28;20090;-81
2023/07/18 04:50:58;;;;;;;6.72;3.70;;;;;;;21.19;77.90;99349.94;5081526;28;20043;-81
2023/07/18 04:53:42;;;;;;;6.82;4.00;;;;;;;21.36;77.22;99348.97;5079146;28;20456;-83
2023/07/18 04:56:26;;;;;;;7.68;3.67;;;;;;;21.37;77.20;99340.72;5077887;28;20055;-81
2023/07/18 04:59:10;;;;;;;5.75;3.55;;;;;;;21.02;78.07;99326.06;5078403;28;20113;-83
2023/07/18 05:01:54;;;;;;;5.20;3.33;;;;;;;21.13;78.03;99329.59;5081294;28;20042;-83
2023/07/18 05:04:38;;;;;;;5.35;3.50;;;;;;;21.54;77.33;99327.16;5081500;28;20051;-82
2023/07/18 05:07:22;;;;;;;7.55;4.03;;;;;;;21.36;77.47;99343.63;5081755;28;20048;-83
2023/07/18 05:10:08;;;;;;;7.63;3.97;;;;;;;21.52;76.98;99337.31;5079560;28;20035;-81
2023/07/18 05:12:54;;;;;;;6.55;3.90;;;;;;;21.50;76.97;99334.09;5085522;28;20393;-79
2023/07/18 05:15:41;;;;;;;4.35;3.30;;;;;;;21.55;76.64;99342.13;5082491;28;20082;-79
2023/07/18 05:18:25;;;;;;;7.15;3.88;;;;;;;21.42;77.06;99337.25;5083397;28;20039;-81
2023/07/18 05:21:10;;;;;;;10.95;5.13;;;;;;;21.40;76.82;99342.84;5077129;28;20055;-83
2023/07/18 05:23:54;;;;;;;7.82;3.45;;;;;;;21.56;76.42;99332.25;5080947;28;20083;-83
2023/07/18 05:26:38;;;;;;;7.25;3.63;;;;;;;21.46;76.70;99332.19;5081345;28;20063;-85
2023/07/18 05:29:22;;;;;;;4.30;3.42;;;;;;;21.58;76.92;99340.81;5078458;28;20102;-83
2023/07/18 05:32:06;;;;;;;4.70;3.25;;;;;;;22.04;75.60;99340.22;5076217;28;20171;-83
2023/07/18 05:34:50;;;;;;;7.15;3.70;;;;;;;21.93;75.93;99330.53;5081370;28;20046;-81
2023/07/18 05:37:34;;;;;;;7.25;4.03;;;;;;;21.83;76.31;99325.97;5079797;28;20402;-80
2023/07/18 05:40:18;;;;;;;4.20;3.15;;;;;;;22.86;74.83;99330.69;5080764;28;20421;-80
2023/07/18 05:43:02;;;;;;;5.78;3.75;;;;;;;22.32;75.72;99327.41;5079716;28;20459;-80
2023/07/18 05:45:46;;;;;;;8.90;3.75;;;;;;;22.77;74.93;99321.56;5076435;28;20070;-80
2023/07/18 05:48:30;;;;;;;5.45;4.03;;;;;;;23.17;74.22;99324.47;5080237;28;20058;-77
2023/07/18 05:51:14;;;;;;;5.70;3.50;;;;;;;22.97;74.49;99321.53;5080486;28;20052;-77
2023/07/18 05:53:59;;;;;;;5.15;3.25;;;;;;;23.06;74.69;99323.69;5077479;28;20103;-78
2023/07/18 05:56:43;;;;;;;6.15;3.13;;;;;;;22.78;75.05;99323.16;5082262;28;20097;-81
2023/07/18 05:59:27;;;;;;;6.20;3.30;;;;;;;23.04;74.79;99320.50;5076188;28;20111;-79
2023/07/18 06:02:11;;;;;;;5.50;3.50;;;;;;;23.54;73.91;99332.16;5081567;28;20540;-79
2023/07/18 06:04:55;;;;;;;7.47;3.65;;;;;;;24.28;73.40;99324.59;5084744;28;20098;-78
2023/07/18 06:07:40;;;;;;;6.80;3.10;;;;;;;24.70;72.14;99319.69;5077480;28;20063;-79
2023/07/18 06:10:24;;;;;;;5.53;3.10;;;;;;;25.07;71.19;99320.97;5079268;28;20074;-79
2023/07/18 06:13:08;;;;;;;8.23;3.35;;;;;;;25.14;70.87;99323.34;5084755;28;20097;-80
2023/07/18 06:15:52;;;;;;;5.93;3.17;;;;;;;25.04;70.14;99313.50;5077391;28;20071;-81
2023/07/18 06:18:37;;;;;;;4.47;3.17;;;;;;;25.30;68.76;99313.22;5086479;28;20089;-82
2023/07/18 06:21:21;;;;;;;4.72;3.10;;;;;;;25.33;68.71;99312.63;5088756;28;20410;-80
2023/07/18 06:24:05;;;;;;;4.78;2.95;;;;;;;25.10;69.62;99306.97;5085133;28;20205;-80
2023/07/18 06:26:49;;;;;;;7.53;3.92;;;;;;;24.79;69.12;99310.75;5087631;28;20043;-81
2023/07/18 06:29:33;;;;;;;6.25;3.55;;;;;;;24.89;69.05;99301.81;5080740;28;20043;-80
2023/07/18 06:32:18;;;;;;;4.60;3.20;;;;;;;24.99;68.83;99305.50;5082411;28;20508;-80
2023/07/18 06:35:05;;;;;;;7.15;3.15;;;;;;;25.32;68.80;99313.72;5079534;28;20113;-80
2023/07/18 06:37:49;;;;;;;7.85;3.05;;;;;;;25.10;69.04;99306.97;5078972;28;20404;-79
2023/07/18 06:40:33;;;;;;;3.75;2.70;;;;;;;25.39;67.66;99314.19;5086597;28;20054;-79
2023/07/18 06:43:17;;;;;;;8.23;3.10;;;;;;;25.36;67.79;99304.03;5082344;28;20501;-79
2023/07/18 06:46:02;;;;;;;5.93;2.80;;;;;;;25.24;65.93;99305.22;5080505;28;20127;-80
2023/07/18 06:48:46;;;;;;;4.07;2.40;;;;;;;25.06;67.97;99306.78;5079483;28;20094;-78
2023/07/18 06:51:30;;;;;;;5.63;2.70;;;;;;;25.44;66.77;99302.56;5085800;28;20094;-79
2023/07/18 06:54:14;;;;;;;7.88;2.80;;;;;;;25.36;64.58;99312.09;5083762;28;20138;-78
2023/07/18 06:56:59;;;;;;;6.80;3.70;;;;;;;25.05;65.43;99312.41;5086780;28;20402;-81
2023/07/18 06:59:43;;;;;;;8.57;2.90;;;;;;;25.27;65.46;99305.72;5089631;28;20401;-86
2023/07/18 07:02:27;;;;;;;6.05;2.60;;;;;;;25.47;64.47;99313.59;5090613;28;20040;-79
2023/07/18 07:05:11;;;;;;;4.95;2.80;;;;;;;25.24;65.02;99310.59;5079114;28;20065;-79
2023/07/18 07:07:55;;;;;;;6.82;2.75;;;;;;;25.22;64.21;99307.41;5076989;28;20182;-79
2023/07/18 07:10:40;;;;;;;4.57;2.67;;;;;;;25.39;63.91;99306.91;5084888;28;20163;-79
2023/07/18 07:13:24;;;;;;;5.72;2.40;;;;;;;25.13;65.43;99311.00;5077041;28;20512;-80
2023/07/18 07:16:09;;;;;;;6.28;2.83;;;;;;;25.13;65.23;99309.09;5077993;28;20116;-80
2023/07/18 07:18:53;;;;;;;6.07;2.50;;;;;;;24.90;65.98;99308.78;5086090;28;20039;-79
2023/07/18 07:21:37;;;;;;;8.50;3.38;;;;;;;24.85;67.11;99316.09;5084384;28;20028;-80
2023/07/18 07:24:21;;;;;;;6.63;3.17;;;;;;;24.72;68.31;99306.78;5082969;28;20150;-81
2023/07/18 07:27:07;;;;;;;9.98;3.30;;;;;;;24.83;67.72;99307.50;5084122;28;20043;-81
2023/07/18 07:29:52;;;;;;;9.52;2.97;;;;;;;24.77;68.17;99304.88;5083515;28;20425;-81
2023/07/18 07:32:36;;;;;;;6.40;2.80;;;;;;;24.97;68.52;99299.63;5086981;28;20085;-81
2023/07/18 07:35:22;;;;;;;6.88;2.70;;;;;;;25.17;67.90;99302.09;5087002;28;20398;-86
2023/07/18 07:38:06;;;;;;;8.23;3.33;;;;;;;25.38;67.51;99309.91;5082637;28;20047;-84
2023/07/18 07:40:50;;;;;;;4.95;2.70;;;;;;;25.65;67.23;99316.59;5083889;28;20559;-83
2023/07/18 07:43:34;;;;;;;11.88;3.42;;;;;;;25.31;65.14;99317.50;5085306;28;20047;-82
2023/07/18 07:46:18;;;;;;;6.75;3.13;;;;;;;25.34;66.25;99314.22;5080794;28;20716;-81
2023/07/18 07:49:02;;;;;;;;;;;;;;;25.48;66.46;99317.88;5087982;28;20089;-82
2023/07/18 07:51:46;;;;;;;7.65;2.70;;;;;;;25.38;64.91;99302.63;5079470;28;19961;-83
2023/07/18 07:54:30;;;;;;;5.82;2.60;;;;;;;25.84;64.40;99307.75;5080358;28;20410;-81
2023/07/18 07:57:15;;;;;;;7.82;3.08;;;;;;;26.03;63.87;99311.25;5082187;28;20085;-82
2023/07/18 07:59:59;;;;;;;7.82;2.70;;;;;;;25.88;63.66;99306.06;5088121;28;20050;-82
2023/07/18 08:02:43;;;;;;;7.13;2.92;;;;;;;26.19;64.58;99313.75;5083832;28;20097;-81
2023/07/18 08:05:28;;;;;;;;;;;;;;;26.29;64.17;99312.78;5083250;28;20051;-82
2023/07/18 08:08:15;;;;;;;6.15;2.22;;;;;;;26.40;63.86;99292.69;5080089;28;19938;-83
2023/07/18 08:10:59;;;;;;;9.65;3.05;;;;;;;26.10;64.37;99300.13;5081489;28;20047;-81
2023/07/18 08:13:43;;;;;;;7.65;2.75;;;;;;;26.28;64.32;99297.75;5081849;28;20038;-82
2023/07/18 08:16:27;;;;;;;7.22;2.28;;;;;;;26.15;64.23;99299.25;5082647;28;20079;-81
2023/07/18 08:19:11;;;;;;;4.90;2.78;;;;;;;26.40;64.74;99291.91;5084597;28;20093;-82
2023/07/18 08:21:56;;;;;;;8.63;2.70;;;;;;;25.50;65.76;99296.88;5085699;28;20098;-81
2023/07/18 08:24:40;;;;;;;6.03;2.15;;;;;;;25.99;63.26;99288.72;5079953;28;20174;-81
2023/07/18 08:27:24;;;;;;;6.07;2.50;;;;;;;26.16;63.62;99295.47;5081023;28;20090;-81
2023/07/18 08:30:09;;;;;;;7.80;2.60;;;;;;;26.45;63.36;99289.13;5085023;28;20039;-82
2023/07/18 08:32:53;;;;;;;10.00;2.92;;;;;;;26.73;62.62;99283.81;5089121;28;20043;-81
2023/07/18 08:35:38;;;;;;;7.55;2.47;;;;;;;27.22;61.83;99279.66;5085191;28;20070;-81
2023/07/18 08:38:22;;;;;;;11.55;3.10;;;;;;;27.32;61.61;99280.56;5086556;28;20050;-82
2023/07/18 08:41:07;;;;;;;8.82;3.53;;;;;;;27.45;61.12;99284.34;5082845;28;20069;-83
2023/07/18 08:43:52;;;;;;;6.65;2.95;;;;;;;27.37;61.33;99280.47;5082835;28;20094;-82
2023/07/18 08:46:36;;;;;;;7.63;3.22;;;;;;;27.77;60.94;99277.22;5078513;28;20047;-83
2023/07/18 08:49:25;;;;;;;9.75;2.60;;;;;;;27.95;59.32;99278.19;5083771;28;20128;-81
2023/07/18 08:52:09;;;;;;;8.65;2.67;;;;;;;28.27;59.26;99273.66;5084145;28;20056;-81
2023/07/18 08:54:53;;;;;;;7.88;2.85;;;;;;;28.24;60.02;99273.50;5078201;28;20054;-80
2023/07/18 08:57:39;;;;;;;13.85;3.05;;;;;;;28.10;58.90;99277.00;5085224;28;20047;-81
2023/07/18 09:00:23;;;;;;;8.07;2.75;;;;;;;28.49;58.86;99266.63;5084428;28;20040;-80
2023/07/18 09:03:08;;;;;;;9.20;3.05;;;;;;;28.96;57.36;99274.34;5081069;28;20035;-81
2023/07/18 09:05:52;;;;;;;7.05;3.20;;;;;;;28.79;57.81;99272.38;5080073;28;20042;-82
2023/07/18 09:08:43;;;;;;;7.65;2.67;;;;;;;28.62;58.26;99263.06;5087084;28;20042;-81
2023/07/18 09:11:28;;;;;;;6.35;2.72;;;;;;;28.49;58.62;99263.94;5083923;28;20106;-81
2023/07/18 09:14:24;;;;;;;6.38;2.80;;;;;;;28.99;57.82;99262.94;5081239;28;20180;-81
2023/07/18 09:17:08;;;;;;;14.85;3.53;;;;;;;28.15;57.25;99265.31;5082678;28;20042;-81
2023/07/18 09:19:53;;;;;;;4.53;2.38;;;;;;;27.85;57.84;99263.03;5082121;28;20038;-80
2023/07/18 09:22:38;;;;;;;9.80;3.20;;;;;;;27.80;58.91;99261.22;5080045;28;20051;-80
2023/07/18 09:25:24;;;;;;;5.70;2.75;;;;;;;28.44;57.94;99255.97;5087060;28;20047;-81
2023/07/18 09:28:12;;;;;;;7.03;2.60;;;;;;;28.72;57.74;99262.00;5077401;28;20452;-81
2023/07/18 09:30:57;;;;;;;8.10;2.40;;;;;;;29.05;56.24;99259.00;5083518;28;20043;-81
2023/07/18 09:33:41;;;;;;;3.50;2.35;;;;;;;28.88;56.79;99259.69;5081101;28;20145;-81
2023/07/18 09:36:25;;;;;;;6.55;3.00;;;;;;;29.01;57.54;99252.63;5082596;28;20046;-81
2023/07/18 09:39:09;;;;;;;13.73;3.47;;;;;;;29.07;56.44;99261.34;5086361;28;20062;-82
2023/07/18 09:41:55;;;;;;;4.07;2.13;;;;;;;29.50;55.28;99255.31;5081464;28;20116;-81
2023/07/18 09:44:40;;;;;;;6.00;2.35;;;;;;;29.39;55.99;99251.28;5078995;28;20042;-81
2023/07/18 09:47:26;;;;;;;10.35;3.15;;;;;;;29.42;55.79;99261.47;5081476;28;20234;-82
2023/07/18 09:50:12;;;;;;;6.38;2.53;;;;;;;29.62;53.90;99253.88;5078587;28;20127;-80
2023/07/18 09:52:57;;;;;;;5.65;2.47;;;;;;;30.13;54.11;99256.13;5080296;28;20389;-80
2023/07/18 09:55:43;;;;;;;5.22;2.60;;;;;;;29.93;54.64;99244.81;5084813;28;20043;-82
2023/07/18 09:58:33;;;;;;;4.65;2.20;;;;;;;30.06;53.31;99246.56;5080683;28;20436;-81
2023/07/18 10:01:20;;;;;;;8.88;2.40;;;;;;;29.92;53.58;99246.69;5081199;28;20051;-82
2023/07/18 10:04:05;;;;;;;5.28;2.17;;;;;;;29.87;51.63;99248.78;5080464;28;20047;-81
2023/07/18 10:06:50;;;;;;;8.63;2.28;;;;;;;29.38;52.09;99252.38;5078790;28;20081;-82
2023/07/18 10:09:36;;;;;;;8.73;2.40;;;;;;;29.85;51.32;99259.94;5078686;28;20183;-81
2023/07/18 10:12:20;;;;;;;3.42;2.47;;;;;;;29.67;50.76;99251.00;5083199;28;20097;-81
2023/07/18 10:15:05;;;;;;;10.38;2.72;;;;;;;28.77;50.17;99245.66;5080270;28;20412;-81
2023/07/18 10:17:49;;;;;;;3.55;1.90;;;;;;;29.06;49.80;99243.56;5083354;28;20093;-81
2023/07/18 10:20:34;;;;;;;4.70;2.20;;;;;;;29.18;49.33;99241.06;5082243;28;20106;-80
2023/07/18 10:23:18;;;;;;;4.75;2.30;;;;;;;28.97;50.39;99237.34;5077268;28;20092;-81
2023/07/18 10:26:05;;;;;;;3.40;1.90;;;;;;;28.83;50.76;99242.88;5083426;28;20055;-82
2023/07/18 10:28:49;;;;;;;2.78;2.10;;;;;;;28.46;50.26;99251.88;5080607;28;20123;-80
2023/07/18 10:31:36;;;;;;;4.68;2.00;;;;;;;27.87;51.29;99246.50;5080087;28;20110;-81
2023/07/18 10:34:20;;;;;;;4.10;2.13;;;;;;;27.91;50.53;99236.72;5078381;28;20061;-80
2023/07/18 10:37:07;;;;;;;6.22;2.30;;;;;;;27.74;51.57;99234.69;5083044;28;20098;-80
2023/07/18 10:39:52;;;;;;;4.18;2.10;;;;;;;27.96;51.47;99238.50;5082866;28;20508;-81
2023/07/18 10:42:37;;;;;;;6.63;2.60;;;;;;;28.02;52.17;99234.59;5078444;28;20055;-81
2023/07/18 10:45:21;;;;;;;4.35;2.00;;;;;;;28.09;52.34;99241.13;5083066;28;20105;-81
2023/07/18 10:48:18;;;;;;;5.80;2.30;;;;;;;28.25;50.98;99232.69;5080750;28;20043;-80
2023/07/18 10:51:03;;;;;;;4.57;2.05;;;;;;;28.55;51.18;99233.03;5079490;28;20155;-80
2023/07/18 10:53:52;;;;;;;5.10;2.35;;;;;;;28.96;50.73;99228.44;5081626;28;20047;-84
2023/07/18 10:56:36;;;;;;;3.40;2.28;;;;;;;29.42;50.06;99228.25;5079182;28;20075;-80
2023/07/18 10:59:23;;;;;;;4.03;1.98;;;;;;;29.85;50.36;99223.94;5079733;28;20117;-83
2023/07/18 11:02:08;;;;;;;3.38;2.30;;;;;;;29.55;49.48;99232.69;5081841;28;20047;-82
2023/07/18 11:04:53;;;;;;;7.15;2.50;;;;;;;29.25;49.96;99227.06;5084383;28;20512;-80
2023/07/18 11:07:40;;;;;;;6.05;2.28;;;;;;;28.75;51.50;99238.97;5086020;28;20113;-81
2023/07/18 11:10:24;;;;;;;4.40;2.13;;;;;;;28.71;53.12;99235.31;5085314;28;20158;-82
2023/07/18 11:13:09;;;;;;;5.72;2.60;;;;;;;28.34;54.28;99227.34;5087551;28;20085;-80
2023/07/18 11:15:56;;;;;;;4.35;2.22;;;;;;;28.63;54.37;99226.84;5083269;28;20074;-82
2023/07/18 11:18:50;;;;;;;4.53;2.25;;;;;;;28.60;55.16;99226.69;5080828;28;20090;-81
2023/07/18 11:21:36;;;;;;;4.97;2.53;;;;;;;28.17;55.54;99228.81;5086670;28;20501;-82
2023/07/18 11:24:23;;;;;;;5.05;2.80;;;;;;;28.19;55.14;99228.53;5083562;28;20095;-82
2023/07/18 11:27:15;;;;;;;5.18;2.47;;;;;;;28.06;56.59;99230.16;5086132;28;20046;-83
2023/07/18 11:30:01;;;;;;;6.07;2.85;;;;;;;27.87;56.12;99227.63;5084205;28;20126;-82
2023/07/18 11:32:46;;;;;;;6.75;2.85;;;;;;;27.79;56.36;99221.88;5081995;28;20043;-82
2023/07/18 11:35:30;;;;;;;4.20;2.67;;;;;;;27.33;57.11;99225.59;5083285;28;20046;-83
2023/07/18 11:38:17;;;;;;;4.43;2.90;;;;;;;27.18;58.13;99224.78;5081700;28;20039;-83
2023/07/18 11:41:01;;;;;;;9.80;3.05;;;;;;;26.98;57.93;99214.44;5078506;28;20048;-83
2023/07/18 11:43:46;;;;;;;5.13;2.80;;;;;;;27.37;57.72;99216.56;5079843;28;20117;-82
2023/07/18 11:46:44;;;;;;;4.97;2.67;;;;;;;27.21;58.32;99216.09;5080667;28;20520;-83
2023/07/18 11:49:33;;;;;;;5.03;2.70;;;;;;;28.01;59.56;99217.59;5081050;28;20051;-82
2023/07/18 11:52:18;;;;;;;5.85;3.00;;;;;;;27.70;58.22;99226.38;5083233;28;20034;-80
2023/07/18 11:55:02;;;;;;;6.03;3.22;;;;;;;27.75;59.96;99220.91;5085578;28;20050;-80
2023/07/18 11:57:48;;;;;;;8.18;2.80;;;;;;;27.63;60.69;99220.63;5082913;28;20042;-83
2023/07/18 12:00:35;;;;;;;4.15;2.65;;;;;;;27.46;61.69;99219.34;5079478;28;20542;-83
2023/07/18 12:03:19;;;;;;;5.85;2.88;;;;;;;27.11;62.17;99219.00;5082227;28;20458;-81
2023/07/18 12:06:03;;;;;;;8.48;5.00;;;;;;;26.94;62.33;99225.00;5083341;28;20054;-81
2023/07/18 12:08:48;;;;;;;4.20;2.92;;;;;;;26.74;62.29;99215.41;5079271;28;20060;-80
2023/07/18 12:11:32;;;;;;;5.93;2.95;;;;;;;26.78;62.31;99221.78;5084138;28;20039;-80
2023/07/18 12:14:16;;;;;;;5.13;2.92;;;;;;;26.67;63.01;99216.56;5081509;28;20081;-81
2023/07/18 12:17:00;;;;;;;8.88;3.40;;;;;;;26.29;63.59;99227.47;5084969;28;20417;-80
2023/07/18 12:19:44;;;;;;;7.28;3.17;;;;;;;25.89;64.00;99227.00;5080198;28;20042;-81
2023/07/18 12:22:32;;;;;;;7.03;3.03;;;;;;;25.60;65.24;99219.91;5083031;28;20135;-81
2023/07/18 12:25:16;;;;;;;6.18;3.15;;;;;;;25.74;64.79;99220.75;5088682;28;20039;-81
2023/07/18 12:28:03;;;;;;;8.95;3.25;;;;;;;25.57;65.91;99215.13;5085268;28;20043;-83
2023/07/18 12:30:47;;;;;;;5.10;2.72;;;;;;;25.39;66.84;99220.16;5082245;28;20082;-81
2023/07/18 12:33:31;;;;;;;5.53;3.05;;;;;;;25.36;67.15;99215.38;5080986;28;20517;-83
2023/07/18 12:36:15;;;;;;;7.40;3.35;;;;;;;25.52;67.43;99211.38;5081951;28;20587;-82
2023/07/18 12:38:59;;;;;;;6.43;2.75;;;;;;;25.90;67.45;99212.47;5081493;28;20528;-81
2023/07/18 12:41:43;;;;;;;5.68;3.00;;;;;;;25.83;67.40;99215.53;5084607;28;20086;-81
2023/07/18 12:44:41;;;;;;;5.50;3.03;;;;;;;25.92;67.44;99210.28;5081737;28;20102;-80
2023/07/18 12:47:25;;;;;;;5.85;2.65;;;;;;;26.19;66.62;99217.69;5079068;28;20446;-80
2023/07/18 12:50:11;;;;;;;4.95;2.58;;;;;;;26.06;66.48;99213.81;5077876;28;20047;-80
2023/07/18 12:52:57;;;;;;;5.43;2.70;;;;;;;25.97;65.49;99214.78;5084911;28;20055;-81
2023/07/18 12:55:42;;;;;;;5.35;2.58;;;;;;;26.07;66.31;99204.66;5083324;28;20074;-81
2023/07/18 12:58:25;;;;;;;7.22;2.88;;;;;;;25.59;67.34;99204.88;5082558;28;20070;-80